Time;durP1;ratioP1;P1;durP2;ratioP2;P2;SDS_P1;SDS_P2;PMS_P1;PMS_P2;Temp;Humidity;BMP_temperature;BMP_pressure;BME280_temperature;BME280_humidity;BME280_pressure;Samples;Min_cycle;Max_cycle;Signal;HPM_P1;HPM_P2
2021/05/03 00:02:04;;;;;;;15.37;14.07;;;4.40;99.90;;;;;;5087395;28;20518;-77
2021/05/03 00:04:30;;;;;;;17.53;16.03;;;4.40;99.90;;;;;;5081411;28;21079;-77
2021/05/03 00:06:58;;;;;;;17.80;16.20;;;4.40;99.90;;;;;;5091723;28;20440;-77
2021/05/03 00:09:24;;;;;;;18.03;16.50;;;4.40;99.90;;;;;;5081392;28;20936;-77
2021/05/03 00:11:50;;;;;;;18.60;17.00;;;4.40;99.90;;;;;;5085417;28;20449;-76
2021/05/03 00:14:17;;;;;;;17.80;16.30;;;4.40;99.90;;;;;;5083404;28;20456;-77
2021/05/03 00:16:43;;;;;;;17.83;16.23;;;4.40;99.90;;;;;;5081258;28;20481;-77
2021/05/03 00:19:10;;;;;;;17.43;15.83;;;4.40;99.90;;;;;;5078535;28;20458;-76
2021/05/03 00:21:36;;;;;;;19.60;17.83;;;4.40;99.90;;;;;;5085019;28;20939;-77
2021/05/03 00:24:04;;;;;;;17.90;16.30;;;4.40;99.90;;;;;;5084673;28;20467;-76
2021/05/03 00:26:31;;;;;;;19.13;17.43;;;4.40;99.90;;;;;;5083592;28;20439;-76
2021/05/03 00:28:57;;;;;;;18.20;16.60;;;4.40;99.90;;;;;;5078526;28;20439;-77
2021/05/03 00:31:24;;;;;;;17.97;16.37;;;4.40;99.90;;;;;;5078815;28;20560;-77
2021/05/03 00:33:50;;;;;;;18.07;16.43;;;4.40;99.90;;;;;;5086657;28;20463;-77
2021/05/03 00:36:16;;;;;;;18.20;16.50;;;4.40;99.90;;;;;;5078985;28;20468;-76
2021/05/03 00:38:45;;;;;;;18.87;17.17;;;4.30;99.90;;;;;;5082909;28;20462;-77
2021/05/03 00:41:12;;;;;;;17.47;16.07;;;4.30;99.90;;;;;;5083609;28;20441;-77
2021/05/03 00:43:39;;;;;;;17.80;16.30;;;4.20;99.90;;;;;;5083856;28;20419;-77
2021/05/03 00:46:07;;;;;;;17.50;16.00;;;4.20;99.90;;;;;;5077136;28;20444;-77
2021/05/03 00:48:33;;;;;;;17.83;16.33;;;4.20;99.90;;;;;;5085341;28;20946;-77
2021/05/03 00:51:00;;;;;;;17.60;15.90;;;4.10;99.90;;;;;;5073315;28;20442;-77
2021/05/03 00:53:26;;;;;;;17.63;16.13;;;4.10;99.90;;;;;;5082606;28;20460;-77
2021/05/03 00:55:52;;;;;;;17.90;16.40;;;4.10;99.90;;;;;;5088322;28;20477;-77
2021/05/03 00:58:19;;;;;;;17.83;16.30;;;4.10;99.90;;;;;;5078712;28;20516;-77
2021/05/03 01:00:46;;;;;;;18.57;16.97;;;4.00;99.90;;;;;;5086581;28;20490;-77
2021/05/03 01:03:12;;;;;;;18.87;17.07;;;4.00;99.90;;;;;;5086799;28;20438;-77
2021/05/03 01:05:39;;;;;;;18.33;16.73;;;4.10;99.90;;;;;;5083401;28;20491;-77
2021/05/03 01:08:05;;;;;;;19.63;17.87;;;4.00;99.90;;;;;;5083410;28;20435;-77
2021/05/03 01:10:32;;;;;;;18.20;16.70;;;4.00;99.90;;;;;;5088703;28;20466;-77
2021/05/03 01:12:59;;;;;;;18.37;16.57;;;4.00;99.90;;;;;;5086448;28;20481;-77
2021/05/03 01:15:27;;;;;;;18.77;17.10;;;4.00;99.90;;;;;;5085414;28;21010;-77
2021/05/03 01:17:56;;;;;;;17.50;15.93;;;4.00;99.90;;;;;;5081996;28;20431;-77
2021/05/03 01:20:24;;;;;;;18.53;16.57;;;3.90;99.90;;;;;;5096991;28;20885;-76
2021/05/03 01:22:54;;;;;;;17.23;15.60;;;3.90;99.90;;;;;;5081843;28;20512;-77
2021/05/03 01:25:21;;;;;;;16.87;15.37;;;3.90;99.90;;;;;;5078611;28;20460;-77
2021/05/03 01:27:47;;;;;;;16.07;14.57;;;3.90;99.90;;;;;;5078656;28;20444;-77
2021/05/03 01:30:15;;;;;;;10.87;9.73;;;3.80;99.90;;;;;;5085034;28;20928;-77
2021/05/03 01:32:41;;;;;;;15.47;13.97;;;3.80;99.90;;;;;;5084878;28;20442;-77
2021/05/03 01:35:09;;;;;;;15.37;13.83;;;3.80;99.90;;;;;;5090727;28;20470;-76
2021/05/03 01:37:35;;;;;;;14.13;12.77;;;3.80;99.90;;;;;;5088165;28;20488;-77
2021/05/03 01:40:04;;;;;;;16.67;15.17;;;3.80;99.90;;;;;;5087913;28;20427;-76
2021/05/03 01:42:31;;;;;;;15.10;13.70;;;3.70;99.90;;;;;;5087485;28;20451;-77
2021/05/03 01:45:00;;;;;;;16.00;14.40;;;3.70;99.90;;;;;;5089841;28;20491;-76
2021/05/03 01:47:26;;;;;;;19.00;17.30;;;3.70;99.90;;;;;;5080290;28;20441;-77
2021/05/03 01:49:53;;;;;;;18.60;16.83;;;3.70;99.90;;;;;;5099248;28;20453;-77
2021/05/03 01:52:20;;;;;;;12.53;10.97;;;3.70;99.90;;;;;;5081176;28;20449;-76
2021/05/03 01:54:51;;;;;;;12.00;10.73;;;3.70;99.90;;;;;;5084401;28;20482;-77
2021/05/03 01:57:19;;;;;;;13.23;11.87;;;3.60;99.90;;;;;;5082948;28;20470;-77
2021/05/03 01:59:47;;;;;;;14.63;13.23;;;3.60;99.90;;;;;;5088003;28;20448;-77
2021/05/03 02:02:14;;;;;;;15.50;14.10;;;3.70;99.90;;;;;;5085889;28;20441;-77
2021/05/03 02:04:40;;;;;;;15.53;14.23;;;3.70;99.90;;;;;;5092035;28;20462;-77
2021/05/03 02:07:06;;;;;;;15.80;14.40;;;3.60;99.90;;;;;;5079885;28;20442;-77
2021/05/03 02:09:33;;;;;;;18.43;16.57;;;3.60;99.90;;;;;;5085560;28;20472;-77
2021/05/03 02:11:59;;;;;;;16.80;15.33;;;3.60;99.90;;;;;;5085757;28;20447;-77
2021/05/03 02:14:26;;;;;;;17.57;15.90;;;3.60;99.90;;;;;;5086176;28;20460;-76
2021/05/03 02:16:52;;;;;;;18.60;16.93;;;3.60;99.90;;;;;;5080718;28;20482;-77
2021/05/03 02:19:19;;;;;;;18.63;16.83;;;3.60;99.90;;;;;;5090925;28;20427;-77
2021/05/03 02:21:45;;;;;;;17.47;15.87;;;3.60;99.90;;;;;;5073582;28;20451;-76
2021/05/03 02:24:12;;;;;;;18.77;17.03;;;3.60;99.90;;;;;;5091191;28;20471;-76
2021/05/03 02:26:38;;;;;;;19.23;17.23;;;3.60;99.90;;;;;;5086236;28;20434;-76
2021/05/03 02:29:04;;;;;;;18.60;16.80;;;3.60;99.90;;;;;;5090426;28;20424;-77
2021/05/03 02:31:31;;;;;;;20.17;18.37;;;3.60;99.90;;;;;;5087675;28;20426;-77
2021/05/03 02:33:58;;;;;;;20.03;18.17;;;3.60;99.90;;;;;;5078497;28;20470;-78
2021/05/03 02:36:24;;;;;;;19.23;17.33;;;3.60;99.90;;;;;;5085890;28;20482;-77
2021/05/03 02:38:50;;;;;;;21.50;19.50;;;3.60;99.90;;;;;;5075267;28;20455;-76
2021/05/03 02:41:17;;;;;;;20.50;18.60;;;3.60;99.90;;;;;;5082243;28;20538;-75
2021/05/03 02:43:43;;;;;;;19.10;17.40;;;3.60;99.90;;;;;;5078715;28;20466;-75
2021/05/03 02:46:10;;;;;;;19.73;17.83;;;3.50;99.90;;;;;;5073884;28;20443;-75
2021/05/03 02:48:38;;;;;;;18.67;16.87;;;3.50;99.90;;;;;;5065899;28;20495;-78
2021/05/03 02:51:05;;;;;;;21.30;19.30;;;3.50;99.90;;;;;;5081619;28;20491;-78
2021/05/03 02:53:31;;;;;;;22.20;19.87;;;3.40;99.90;;;;;;5087776;28;20437;-77
2021/05/03 02:55:58;;;;;;;22.17;20.10;;;3.50;99.90;;;;;;5086439;28;20494;-76
2021/05/03 02:58:24;;;;;;;19.83;17.83;;;3.50;99.90;;;;;;5082386;28;20515;-79
2021/05/03 03:00:53;;;;;;;22.17;19.83;;;3.50;99.90;;;;;;5083933;28;20497;-78
2021/05/03 03:03:19;;;;;;;20.50;18.50;;;3.50;99.90;;;;;;5080508;28;20954;-77
2021/05/03 03:05:46;;;;;;;19.57;17.67;;;3.60;99.90;;;;;;5099932;28;20460;-76
2021/05/03 03:08:13;;;;;;;19.00;17.20;;;3.50;99.90;;;;;;5071936;28;20437;-77
2021/05/03 03:10:39;;;;;;;19.73;17.93;;;3.60;99.90;;;;;;5075919;28;20959;-78
2021/05/03 03:13:06;;;;;;;19.67;17.87;;;3.60;99.90;;;;;;5084403;28;20908;-77
2021/05/03 03:15:35;;;;;;;19.77;17.93;;;3.70;99.90;;;;;;5080513;28;20486;-77
2021/05/03 03:18:02;;;;;;;20.03;18.23;;;3.70;99.90;;;;;;5080939;28;20442;-77
2021/05/03 03:20:29;;;;;;;21.20;19.30;;;3.70;99.90;;;;;;5074335;28;20445;-79
2021/05/03 03:22:56;;;;;;;19.43;17.63;;;3.70;99.90;;;;;;5081066;28;20427;-79
2021/05/03 03:25:23;;;;;;;20.73;18.70;;;3.70;99.90;;;;;;5095204;22;20487;-75
2021/05/03 03:27:50;;;;;;;19.83;18.03;;;3.70;99.90;;;;;;5069860;28;20437;-74
2021/05/03 03:30:17;;;;;;;19.93;18.03;;;3.70;99.90;;;;;;5069271;28;20439;-73
2021/05/03 03:32:44;;;;;;;21.10;19.20;;;3.60;99.90;;;;;;5061829;28;21021;-74
2021/05/03 03:35:13;;;;;;;21.67;19.47;;;3.60;99.90;;;;;;5069987;28;20542;-74
2021/05/03 03:37:39;;;;;;;19.97;18.30;;;3.60;99.90;;;;;;5061752;28;20434;-73
2021/05/03 03:40:08;;;;;;;20.50;18.63;;;3.60;99.90;;;;;;5072230;28;20436;-74
2021/05/03 03:42:34;;;;;;;21.20;19.37;;;3.60;99.90;;;;;;5067209;28;20440;-74
2021/05/03 03:45:00;;;;;;;21.03;19.13;;;3.60;99.90;;;;;;5061562;28;21049;-75
2021/05/03 03:47:27;;;;;;;20.47;18.57;;;3.60;99.90;;;;;;5065480;28;20477;-75
2021/05/03 03:49:53;;;;;;;21.23;19.30;;;3.60;99.90;;;;;;5068252;28;20856;-75
2021/05/03 03:52:20;;;;;;;21.30;19.43;;;3.60;99.90;;;;;;5065084;28;20853;-75
2021/05/03 03:54:46;;;;;;;21.10;19.13;;;3.60;99.90;;;;;;5063214;28;20459;-74
2021/05/03 03:57:13;;;;;;;22.50;20.50;;;3.60;99.90;;;;;;5079659;28;20478;-75
2021/05/03 03:59:41;;;;;;;21.33;19.53;;;3.60;99.90;;;;;;5062228;28;20877;-75
2021/05/03 04:02:08;;;;;;;22.43;20.23;;;3.70;99.90;;;;;;5059067;28;20435;-75
2021/05/03 04:04:35;;;;;;;22.17;20.27;;;3.60;99.90;;;;;;5071553;28;20445;-75
2021/05/03 04:07:07;;;;;;;22.13;20.20;;;3.70;99.90;;;;;;5063041;28;20471;-74
2021/05/03 04:09:39;;;;;;;21.63;19.63;;;3.60;99.90;;;;;;5064307;28;20521;-75
2021/05/03 04:12:21;;;;;;;21.50;19.50;;;3.70;99.90;;;;;;5067964;28;20439;-75
2021/05/03 04:25:46;;;;;;;21.23;19.03;;;3.80;99.90;;;;;;5077817;28;20536;-75
2021/05/03 04:28:13;;;;;;;19.00;17.23;;;3.80;99.90;;;;;;5070150;28;20458;-75
2021/05/03 04:30:40;;;;;;;19.47;17.47;;;3.80;99.90;;;;;;5063026;28;20934;-75
2021/05/03 04:33:06;;;;;;;19.30;17.27;;;3.80;99.90;;;;;;5062299;28;20446;-75
2021/05/03 04:35:32;;;;;;;21.30;19.30;;;3.80;99.90;;;;;;5063867;28;20977;-75
2021/05/03 04:37:58;;;;;;;20.50;18.60;;;3.80;99.90;;;;;;5068884;28;20561;-75
2021/05/03 04:40:25;;;;;;;20.43;18.43;;;3.80;99.90;;;;;;5065236;28;20436;-75
2021/05/03 04:42:51;;;;;;;20.00;18.07;;;3.90;99.90;;;;;;5067716;28;20444;-75
2021/05/03 04:45:17;;;;;;;20.40;18.60;;;4.00;99.90;;;;;;5064139;28;20812;-75
2021/05/03 04:47:44;;;;;;;20.27;18.43;;;4.10;99.90;;;;;;5062901;28;20421;-75
2021/05/03 04:50:12;;;;;;;20.70;18.90;;;4.10;99.90;;;;;;5061485;28;20438;-75
2021/05/03 04:52:39;;;;;;;19.20;17.43;;;4.20;99.90;;;;;;5061830;28;20526;-75
2021/05/03 04:55:06;;;;;;;20.40;18.50;;;4.20;99.90;;;;;;5066269;28;20466;-74
2021/05/03 04:57:33;;;;;;;19.13;17.43;;;4.30;99.90;;;;;;5065165;28;20537;-75
2021/05/03 05:00:00;;;;;;;14.20;11.80;;;4.40;99.90;;;;;;5059944;28;20530;-75
2021/05/03 05:02:26;;;;;;;13.87;11.30;;;4.40;99.90;;;;;;5065530;28;20443;-74
2021/05/03 05:04:54;;;;;;;15.73;11.90;;;4.60;99.90;;;;;;5064978;28;20452;-75
2021/05/03 05:07:21;;;;;;;14.73;11.93;;;4.80;99.90;;;;;;5066300;28;20945;-74
2021/05/03 05:09:47;;;;;;;13.93;11.70;;;5.00;99.90;;;;;;5066261;28;20444;-75
2021/05/03 05:12:14;;;;;;;20.87;18.97;;;5.20;99.90;;;;;;5068722;28;20207;-75
2021/05/03 05:14:40;;;;;;;21.37;19.37;;;5.70;99.90;;;;;;5069438;28;20472;-75
2021/05/03 05:17:06;;;;;;;21.43;19.73;;;6.20;99.90;;;;;;5066147;28;20468;-75
2021/05/03 05:19:33;;;;;;;18.17;16.57;;;6.70;99.90;;;;;;5066359;28;20190;-75
2021/05/03 05:22:00;;;;;;;19.70;17.90;;;7.20;99.90;;;;;;5066070;28;20207;-75
2021/05/03 05:24:26;;;;;;;18.90;17.30;;;7.50;99.90;;;;;;5064714;28;20219;-76
2021/05/03 05:26:53;;;;;;;18.67;17.10;;;7.70;99.90;;;;;;5065730;28;20191;-76
2021/05/03 05:29:19;;;;;;;18.47;16.97;;;7.90;99.90;;;;;;5069304;28;20525;-75
2021/05/03 05:31:45;;;;;;;17.23;15.77;;;8.00;99.90;;;;;;5070775;28;20326;-76
2021/05/03 05:34:12;;;;;;;17.40;16.00;;;8.50;99.90;;;;;;5066732;28;20218;-75
2021/05/03 05:36:38;;;;;;;17.20;15.80;;;8.90;99.90;;;;;;5065751;28;20694;-76
2021/05/03 05:39:07;;;;;;;13.20;12.00;;;9.30;99.90;;;;;;5065859;28;20254;-76
2021/05/03 05:41:33;;;;;;;11.53;10.43;;;9.60;99.90;;;;;;5065854;28;20209;-76
2021/05/03 05:44:00;;;;;;;9.57;8.57;;;9.90;99.90;;;;;;5069087;28;20194;-76
2021/05/03 05:46:26;;;;;;;11.03;9.93;;;9.30;99.90;;;;;;5073868;28;20651;-76
2021/05/03 05:48:52;;;;;;;12.50;11.23;;;9.30;99.90;;;;;;5064510;28;20693;-76
2021/05/03 05:51:19;;;;;;;10.37;9.33;;;9.30;99.90;;;;;;5065595;28;20198;-76
2021/05/03 05:53:45;;;;;;;10.30;9.37;;;9.30;99.90;;;;;;5064338;28;20724;-75
2021/05/03 05:56:12;;;;;;;10.67;9.67;;;9.30;99.90;;;;;;5069261;28;20237;-76
2021/05/03 05:58:39;;;;;;;10.33;9.07;;;9.10;99.90;;;;;;5070537;28;20198;-76
2021/05/03 06:01:05;;;;;;;10.60;9.60;;;8.90;99.90;;;;;;5062111;28;20564;-75
2021/05/03 06:03:32;;;;;;;10.60;9.60;;;8.80;99.90;;;;;;5068925;28;20666;-76
2021/05/03 06:05:58;;;;;;;11.47;9.80;;;8.80;99.90;;;;;;5063895;28;20221;-76
2021/05/03 06:08:24;;;;;;;10.60;9.50;;;9.00;99.90;;;;;;5065427;28;20201;-76
2021/05/03 06:10:51;;;;;;;11.10;10.00;;;9.10;99.90;;;;;;5065095;28;20253;-75
2021/05/03 06:13:18;;;;;;;15.40;14.20;;;9.10;99.90;;;;;;5068561;28;20196;-75
2021/05/03 06:15:44;;;;;;;15.20;13.90;;;9.00;99.90;;;;;;5067811;28;20709;-75
2021/05/03 06:18:11;;;;;;;16.03;14.60;;;9.00;99.90;;;;;;5061678;28;20191;-76
2021/05/03 06:20:38;;;;;;;15.40;14.10;;;9.10;99.90;;;;;;5080902;28;20198;-76
2021/05/03 06:23:08;;;;;;;15.30;14.10;;;9.30;99.90;;;;;;5072802;28;20194;-76
2021/05/03 06:25:34;;;;;;;13.47;12.37;;;9.40;99.90;;;;;;5063398;28;20706;-76
2021/05/03 06:28:01;;;;;;;14.00;12.77;;;9.60;99.90;;;;;;5065141;28;20202;-76
2021/05/03 06:30:28;;;;;;;13.97;12.77;;;9.80;99.90;;;;;;5066807;28;20203;-76
2021/05/03 06:32:55;;;;;;;15.30;14.07;;;10.00;99.90;;;;;;5069937;28;20198;-76
2021/05/03 06:35:23;;;;;;;13.10;11.83;;;10.20;99.90;;;;;;5065590;28;20222;-76
2021/05/03 06:37:50;;;;;;;28.73;12.10;;;10.40;99.90;;;;;;5064518;28;20213;-76
2021/05/03 06:40:18;;;;;;;15.20;13.70;;;10.70;99.90;;;;;;5063447;28;20190;-76
2021/05/03 06:42:46;;;;;;;15.10;13.90;;;11.00;99.90;;;;;;5064861;28;20195;-75
2021/05/03 06:45:13;;;;;;;14.70;13.50;;;11.30;99.90;;;;;;5064415;28;20245;-76
2021/05/03 06:47:40;;;;;;;14.13;12.83;;;11.30;99.90;;;;;;5065102;28;20506;-76
2021/05/03 06:50:09;;;;;;;13.93;12.83;;;11.60;99.90;;;;;;5061246;28;20192;-76
2021/05/03 06:52:37;;;;;;;14.83;13.63;;;11.90;99.90;;;;;;5068496;28;20207;-76
2021/05/03 06:55:04;;;;;;;15.40;14.20;;;12.00;99.90;;;;;;5064271;28;20254;-76
2021/05/03 06:57:30;;;;;;;15.97;14.47;;;12.30;99.90;;;;;;5063057;28;20388;-76
2021/05/03 06:59:56;;;;;;;13.07;12.03;;;12.50;99.90;;;;;;5064168;28;20634;-76
2021/05/03 07:02:24;;;;;;;14.23;13.17;;;12.80;99.90;;;;;;5065399;28;20193;-76
2021/05/03 07:04:51;;;;;;;12.73;11.73;;;13.00;99.90;;;;;;5061840;28;20824;-77
2021/05/03 07:07:18;;;;;;;11.77;10.57;;;13.20;99.90;;;;;;5065706;28;20204;-76
2021/05/03 07:09:47;;;;;;;12.30;11.20;;;13.50;99.90;;;;;;5069012;28;20207;-76
2021/05/03 07:12:15;;;;;;;14.27;13.03;;;13.60;99.90;;;;;;5065067;28;20187;-75
2021/05/03 07:14:41;;;;;;;13.27;12.23;;;13.70;99.90;;;;;;5063977;28;20263;-76
2021/05/03 07:17:08;;;;;;;11.47;10.47;;;14.10;99.90;;;;;;5063943;28;20221;-76
2021/05/03 07:19:35;;;;;;;12.60;11.40;;;14.30;99.90;;;;;;5064872;28;20764;-77
2021/05/03 07:22:03;;;;;;;10.20;9.30;;;14.60;99.90;;;;;;5067284;28;20212;-77
2021/05/03 07:24:29;;;;;;;11.80;10.63;;;15.00;99.90;;;;;;5066568;28;20226;-76
2021/05/03 07:26:56;;;;;;;12.10;11.17;;;15.10;99.90;;;;;;5061323;28;20195;-76
2021/05/03 07:29:22;;;;;;;15.03;13.83;;;15.00;99.90;;;;;;5058656;28;20657;-76
2021/05/03 07:31:49;;;;;;;13.27;12.27;;;14.90;99.90;;;;;;5061181;28;20201;-77
2021/05/03 07:34:17;;;;;;;14.77;13.57;;;15.10;99.90;;;;;;5060064;28;20588;-76
2021/05/03 07:36:43;;;;;;;10.97;10.07;;;14.90;99.90;;;;;;5068563;28;20687;-77
2021/05/03 07:39:11;;;;;;;10.00;9.10;;;14.90;99.90;;;;;;5082582;28;20572;-76
2021/05/03 07:41:40;;;;;;;9.23;8.33;;;14.80;99.90;;;;;;5065199;28;20200;-77
2021/05/03 07:44:06;;;;;;;11.70;10.60;;;14.80;99.90;;;;;;5059990;28;20218;-76
2021/05/03 07:46:33;;;;;;;9.37;8.57;;;15.10;99.90;;;;;;5065782;28;20593;-77
2021/05/03 07:49:00;;;;;;;10.07;9.10;;;15.40;99.90;;;;;;5063476;28;20190;-77
2021/05/03 07:51:27;;;;;;;12.90;11.90;;;15.50;99.90;;;;;;5062315;28;20195;-76
2021/05/03 07:53:54;;;;;;;12.57;11.47;;;15.80;99.90;;;;;;5062091;28;20207;-77
2021/05/03 07:56:22;;;;;;;13.10;12.10;;;15.80;99.90;;;;;;5064623;28;20228;-77
2021/05/03 07:58:50;;;;;;;9.30;8.50;;;15.80;99.90;;;;;;5059649;28;20222;-77
2021/05/03 08:01:16;;;;;;;14.40;13.10;;;16.10;99.90;;;;;;5071414;28;20728;-77
2021/05/03 08:03:43;;;;;;;10.40;9.50;;;16.10;99.90;;;;;;5071178;28;20195;-77
2021/05/03 08:06:13;;;;;;;8.40;7.60;;;16.30;99.90;;;;;;5063924;28;20660;-77
2021/05/03 08:08:40;;;;;;;8.00;7.20;;;16.50;99.90;;;;;;5063239;28;20190;-77
2021/05/03 08:11:06;;;;;;;8.03;7.33;;;16.90;99.90;;;;;;5059629;28;20293;-77
2021/05/03 08:13:34;;;;;;;8.83;8.03;;;17.00;99.90;;;;;;5062869;28;20285;-77
2021/05/03 08:16:02;;;;;;;7.87;7.07;;;16.80;99.90;;;;;;5067596;28;20219;-77
2021/05/03 08:18:28;;;;;;;6.03;5.50;;;16.80;99.90;;;;;;5065059;28;20203;-79
2021/05/03 08:20:55;;;;;;;6.10;5.60;;;16.90;99.90;;;;;;5061002;28;20201;-77
2021/05/03 08:23:22;;;;;;;8.33;7.63;;;17.20;99.90;;;;;;5063876;28;20200;-77
2021/05/03 08:25:49;;;;;;;7.83;7.03;;;17.30;99.90;;;;;;5061369;28;20708;-77
2021/05/03 08:28:16;;;;;;;7.00;6.40;;;17.30;99.90;;;;;;5064649;28;20275;-76
2021/05/03 08:30:44;;;;;;;7.50;6.80;;;17.30;99.90;;;;;;5063982;28;20688;-76
2021/05/03 08:33:10;;;;;;;7.63;6.97;;;17.40;99.90;;;;;;5067195;28;20194;-77
2021/05/03 08:35:37;;;;;;;7.90;7.20;;;17.60;99.90;;;;;;5065536;28;20229;-76
2021/05/03 08:38:04;;;;;;;7.40;6.70;;;17.50;99.10;;;;;;5058477;28;20203;-76
2021/05/03 08:40:31;;;;;;;7.00;6.00;;;17.50;99.30;;;;;;5068661;28;20197;-76
2021/05/03 08:43:00;;;;;;;8.13;6.33;;;17.60;99.70;;;;;;5065745;28;20220;-77
2021/05/03 08:45:27;;;;;;;6.30;5.80;;;17.90;98.60;;;;;;5066509;28;20241;-77
2021/05/03 08:48:04;;;;;;;6.33;5.73;;;18.20;98.00;;;;;;5066737;28;20201;-76
2021/05/03 08:50:47;;;;;;;6.83;6.23;;;18.30;98.50;;;;;;5068098;28;20198;-77
2021/05/03 08:53:16;;;;;;;7.40;6.80;;;18.20;96.90;;;;;;5063186;28;20187;-77
2021/05/03 08:55:43;;;;;;;7.67;6.97;;;17.80;98.00;;;;;;5071222;28;20226;-77
2021/05/03 08:58:09;;;;;;;10.07;9.07;;;17.90;95.90;;;;;;5066319;28;20237;-77
2021/05/03 09:00:36;;;;;;;8.13;7.43;;;18.20;95.90;;;;;;5070286;28;20198;-77
2021/05/03 09:03:05;;;;;;;8.03;7.37;;;18.40;97.40;;;;;;5066524;28;20683;-77
2021/05/03 09:05:33;;;;;;;8.10;7.40;;;18.30;95.80;;;;;;5067562;28;20261;-77
2021/05/03 09:07:59;;;;;;;6.80;6.30;;;19.00;95.10;;;;;;5071550;28;20201;-77
2021/05/03 09:10:26;;;;;;;8.00;7.30;;;19.30;94.30;;;;;;5069627;28;20575;-77
2021/05/03 09:12:52;;;;;;;9.97;9.27;;;19.80;93.50;;;;;;5066955;28;20666;-77
2021/05/03 09:15:23;;;;;;;10.30;9.60;;;20.10;92.20;;;;;;5065856;28;20233;-76
2021/05/03 09:17:51;;;;;;;9.03;8.33;;;20.30;92.20;;;;;;5066321;28;20228;-77
2021/05/03 09:20:19;;;;;;;10.50;9.70;;;20.60;92.50;;;;;;5067589;28;20204;-77
2021/05/03 09:22:50;;;;;;;10.07;9.27;;;20.90;92.00;;;;;;5067381;28;20202;-78
2021/05/03 09:25:19;;;;;;;8.97;8.27;;;20.40;91.80;;;;;;5095015;22;20229;-79
2021/05/03 09:27:46;;;;;;;11.50;10.70;;;19.60;91.90;;;;;;5068566;28;20207;-79
2021/05/03 09:30:14;;;;;;;10.13;9.30;;;18.60;90.70;;;;;;5076257;28;20227;-80
2021/05/03 09:32:40;;;;;;;9.37;8.73;;;18.20;92.00;;;;;;5075771;28;20213;-79
2021/05/03 09:35:07;;;;;;;9.83;9.13;;;17.70;92.40;;;;;;5072238;28;20224;-79
2021/05/03 09:37:38;;;;;;;9.90;9.10;;;17.50;93.20;;;;;;5068188;28;20232;-78
2021/05/03 09:40:11;;;;;;;9.97;9.07;;;17.10;94.10;;;;;;5071851;28;20192;-78
2021/05/03 09:42:46;;;;;;;9.87;9.07;;;17.00;94.80;;;;;;5062152;28;20191;-78
2021/05/03 09:45:17;;;;;;;7.67;7.17;;;16.80;93.20;;;;;;5075178;28;20217;-78
2021/05/03 09:47:45;;;;;;;5.17;4.70;;;16.60;93.90;;;;;;5071671;28;20576;-78
2021/05/03 09:50:13;;;;;;;5.53;4.00;;;16.50;95.10;;;;;;5065984;28;20235;-78
2021/05/03 09:53:00;;;;;;;5.43;4.53;;;16.50;95.20;;;;;;5066862;28;20193;-78
2021/05/03 09:55:36;;;;;;;6.67;5.10;;;16.30;94.70;;;;;;5070960;28;20203;-78
2021/05/03 09:58:11;;;;;;;5.50;5.00;;;16.20;94.70;;;;;;5068566;28;20211;-78
2021/05/03 10:00:39;;;;;;;5.27;4.77;;;16.00;95.70;;;;;;5066684;28;20201;-78
2021/05/03 10:03:35;;;;;;;5.27;4.10;;;16.30;96.40;;;;;;5072435;28;20291;-78
2021/05/03 10:06:03;;;;;;;6.43;4.63;;;16.20;96.10;;;;;;5076326;28;20367;-79
2021/05/03 10:08:31;;;;;;;4.93;4.43;;;16.20;95.40;;;;;;5076043;28;20200;-79
2021/05/03 10:11:00;;;;;;;4.67;4.27;;;16.00;95.00;;;;;;5065313;28;20662;-78
2021/05/03 10:13:28;;;;;;;5.40;4.90;;;16.10;97.30;;;;;;5070927;28;20212;-78
2021/05/03 10:15:57;;;;;;;5.67;5.17;;;16.10;95.20;;;;;;5066166;28;20218;-78
2021/05/03 10:18:26;;;;;;;4.33;4.00;;;16.30;95.00;;;;;;5075109;28;20204;-78
2021/05/03 10:20:53;;;;;;;4.50;4.10;;;16.40;94.40;;;;;;5066261;28;20202;-78
2021/05/03 10:23:21;;;;;;;4.40;4.00;;;16.60;93.90;;;;;;5068205;28;20204;-78
2021/05/03 10:25:54;;;;;;;4.13;3.73;;;16.70;94.30;;;;;;5074336;28;20303;-78
2021/05/03 10:28:20;;;;;;;3.67;3.37;;;16.70;92.60;;;;;;5068102;28;20609;-78
2021/05/03 10:30:48;;;;;;;4.53;3.93;;;16.70;91.80;;;;;;5065125;28;20197;-78
2021/05/03 10:33:15;;;;;;;7.17;6.57;;;16.80;91.60;;;;;;5064660;28;20202;-78
2021/05/03 10:35:43;;;;;;;7.63;7.10;;;16.60;93.20;;;;;;5064910;28;20225;-79
2021/05/03 10:38:36;;;;;;;6.80;6.20;;;16.60;91.60;;;;;;5066151;28;20262;-78
2021/05/03 10:41:21;;;;;;;7.77;7.27;;;16.70;92.50;;;;;;5070911;28;20198;-78
2021/05/03 10:43:49;;;;;;;7.33;6.73;;;16.90;92.30;;;;;;5072081;28;20204;-78
2021/05/03 10:49:18;;;;;;;8.17;7.60;;;17.10;91.50;;;;;;5055525;28;20662;-78
2021/05/03 10:51:50;;;;;;;7.90;7.40;;;17.00;90.70;;;;;;5064416;28;20201;-78
2021/05/03 10:54:52;;;;;;;8.50;7.80;;;17.00;90.80;;;;;;5065924;28;20271;-78
2021/05/03 10:57:37;;;;;;;7.13;6.63;;;16.90;90.30;;;;;;4976009;28;20223;-78
2021/05/03 11:00:13;;;;;;;8.10;7.30;;;17.10;91.20;;;;;;4976285;28;20205;-78
2021/05/03 11:02:45;;;;;;;7.20;6.70;;;17.30;91.30;;;;;;5033976;28;20194;-78
2021/05/03 11:05:14;;;;;;;7.63;7.13;;;17.70;91.10;;;;;;5063149;28;20215;-78
2021/05/03 11:08:28;;;;;;;8.33;7.53;;;17.90;91.50;;;;;;5065845;28;20194;-78
2021/05/03 11:11:04;;;;;;;8.10;7.60;;;18.00;90.60;;;;;;5064015;28;20210;-78
2021/05/03 11:13:56;;;;;;;8.00;7.40;;;18.10;90.80;;;;;;5065485;28;20194;-78
2021/05/03 11:16:45;;;;;;;7.73;7.23;;;17.80;90.40;;;;;;5061650;28;20210;-78
2021/05/03 11:19:38;;;;;;;8.10;7.60;;;17.80;89.00;;;;;;5058174;28;20198;-78
2021/05/03 11:22:07;;;;;;;8.27;7.67;;;17.70;87.70;;;;;;5077074;28;20199;-78
2021/05/03 11:24:36;;;;;;;8.00;7.40;;;17.30;87.90;;;;;;5066348;28;20194;-78
2021/05/03 11:27:06;;;;;;;7.97;7.43;;;17.30;89.90;;;;;;5068703;28;20194;-78
2021/05/03 11:29:42;;;;;;;7.43;6.93;;;17.20;86.70;;;;;;5079695;28;20202;-78
2021/05/03 11:32:08;;;;;;;7.13;6.73;;;17.40;87.10;;;;;;5065701;28;20190;-78
2021/05/03 11:34:44;;;;;;;8.20;7.60;;;17.50;86.20;;;;;;5064615;28;20212;-78
2021/05/03 11:37:14;;;;;;;7.13;6.70;;;17.20;85.70;;;;;;5057502;28;20213;-78
2021/05/03 11:39:51;;;;;;;7.70;7.20;;;17.20;88.30;;;;;;5063776;28;20296;-78
2021/05/03 11:42:39;;;;;;;7.57;7.07;;;17.30;86.60;;;;;;5058081;28;20565;-79
2021/05/03 11:45:07;;;;;;;6.93;6.53;;;17.20;85.80;;;;;;5065120;28;20231;-78
2021/05/03 11:47:35;;;;;;;6.60;6.20;;;17.30;86.80;;;;;;5072332;28;20244;-78
2021/05/03 11:50:01;;;;;;;7.40;7.00;;;17.40;86.00;;;;;;5064306;28;20201;-78
2021/05/03 11:52:29;;;;;;;7.10;6.50;;;17.60;85.80;;;;;;5063752;28;20189;-78
2021/05/03 11:55:05;;;;;;;7.50;6.90;;;17.60;84.40;;;;;;5065209;28;20219;-78
2021/05/03 11:57:32;;;;;;;7.80;7.30;;;17.50;85.30;;;;;;5064765;28;20301;-78
2021/05/03 12:00:00;;;;;;;7.57;7.07;;;17.40;86.20;;;;;;5068524;28;20209;-78
2021/05/03 12:02:28;;;;;;;7.73;7.23;;;17.00;84.00;;;;;;5066791;28;20200;-78
2021/05/03 12:04:55;;;;;;;7.37;6.87;;;17.00;85.40;;;;;;5061648;28;20233;-78
2021/05/03 12:07:23;;;;;;;7.20;6.80;;;17.00;87.10;;;;;;5065647;28;20212;-78
2021/05/03 12:10:01;;;;;;;7.40;6.90;;;17.00;87.10;;;;;;5063634;28;20199;-79
2021/05/03 12:12:33;;;;;;;8.10;7.60;;;17.00;86.60;;;;;;5066620;28;20201;-78
2021/05/03 12:14:59;;;;;;;8.17;7.57;;;16.80;87.90;;;;;;5064088;28;20255;-78
2021/05/03 12:17:28;;;;;;;7.63;7.13;;;16.50;88.00;;;;;;5072634;28;20687;-78
2021/05/03 12:19:55;;;;;;;7.57;7.07;;;16.30;87.10;;;;;;5064385;28;20214;-78
2021/05/03 12:22:23;;;;;;;7.77;7.17;;;16.30;89.50;;;;;;5065785;28;20294;-78
2021/05/03 12:24:54;;;;;;;7.77;7.20;;;16.20;88.50;;;;;;5068337;28;20241;-78
2021/05/03 12:27:20;;;;;;;7.33;6.80;;;16.10;88.70;;;;;;5065496;28;20205;-78
2021/05/03 12:29:48;;;;;;;7.27;6.70;;;16.40;90.40;;;;;;5065244;28;20202;-78
2021/05/03 12:32:16;;;;;;;6.53;6.13;;;16.60;90.00;;;;;;5065000;28;20197;-78
2021/05/03 12:34:48;;;;;;;7.20;6.60;;;16.60;88.10;;;;;;5073190;28;20226;-78
2021/05/03 12:37:17;;;;;;;7.60;6.90;;;16.70;87.90;;;;;;5064955;28;20242;-78
2021/05/03 12:40:06;;;;;;;7.20;6.70;;;16.70;85.70;;;;;;5067763;28;20209;-78
2021/05/03 12:42:38;;;;;;;7.40;6.90;;;16.60;84.50;;;;;;5064582;28;20204;-78
2021/05/03 12:45:32;;;;;;;8.17;7.20;;;16.50;85.10;;;;;;5069785;28;20216;-78
2021/05/03 12:48:08;;;;;;;7.20;6.70;;;16.30;87.30;;;;;;5065844;28;20212;-78
2021/05/03 12:51:04;;;;;;;7.87;7.27;;;16.30;85.50;;;;;;5068091;28;20252;-78
2021/05/03 12:53:34;;;;;;;7.40;6.90;;;16.30;88.60;;;;;;5061649;28;20192;-78
2021/05/03 12:56:15;;;;;;;7.13;6.57;;;16.30;89.40;;;;;;5070326;28;20215;-78
2021/05/03 12:58:55;;;;;;;7.20;6.70;;;16.30;89.40;;;;;;5070188;28;20197;-78
2021/05/03 13:01:30;;;;;;;7.87;7.17;;;16.20;89.30;;;;;;5065867;28;20204;-78
2021/05/03 13:04:04;;;;;;;7.77;7.17;;;16.10;88.70;;;;;;5064424;28;20200;-78